Time;durP1;ratioP1;P1;durP2;ratioP2;P2;SDS_P1;SDS_P2;PMS_P1;PMS_P2;Temp;Humidity;BMP_temperature;BMP_pressure;BME280_temperature;BME280_humidity;BME280_pressure;Samples;Min_cycle;Max_cycle;Signal;HPM_P1;HPM_P2
2022/04/07 00:01:01;;;;;;;7.00;3.25;;;;;;;9.74;61.57;94163.16;5067175;28;20137;-45
2022/04/07 00:03:28;;;;;;;5.85;3.13;;;;;;;9.66;61.40;94154.97;5066090;28;20042;-45
2022/04/07 00:05:55;;;;;;;5.38;3.47;;;;;;;9.62;61.74;94157.25;5063338;28;20119;-46
2022/04/07 00:08:22;;;;;;;5.40;3.05;;;;;;;9.60;61.33;94154.13;5066064;28;20068;-45
2022/04/07 00:10:50;;;;;;;8.98;3.50;;;;;;;9.53;62.16;94145.72;5063138;28;20044;-45
2022/04/07 00:13:17;;;;;;;5.57;3.55;;;;;;;9.45;62.86;94135.72;5063017;28;20040;-48
2022/04/07 00:15:44;;;;;;;5.55;2.92;;;;;;;9.47;63.28;94131.06;5063311;28;20464;-46
2022/04/07 00:18:11;;;;;;;6.10;3.00;;;;;;;9.45;63.19;94133.91;5065633;28;20052;-47
2022/04/07 00:20:38;;;;;;;5.38;3.03;;;;;;;9.46;63.18;94129.50;5062981;28;20501;-45
2022/04/07 00:23:04;;;;;;;5.10;2.92;;;;;;;9.41;63.84;94116.44;5066701;28;20093;-45
2022/04/07 00:25:31;;;;;;;8.52;3.15;;;;;;;9.37;64.18;94116.91;5065412;28;20033;-45
2022/04/07 00:27:59;;;;;;;4.63;2.78;;;;;;;9.33;64.62;94105.44;5064409;28;20174;-45
2022/04/07 00:30:25;;;;;;;4.85;3.53;;;;;;;9.35;64.21;94103.38;5065393;28;20553;-45
2022/04/07 00:32:52;;;;;;;5.18;3.45;;;;;;;9.40;64.16;94104.47;5065238;28;20055;-45
2022/04/07 00:35:19;;;;;;;7.63;2.88;;;;;;;9.40;63.84;94097.47;5064457;28;20490;-45
2022/04/07 00:37:46;;;;;;;7.47;4.30;;;;;;;9.44;63.83;94095.19;5066349;28;20094;-45
2022/04/07 00:40:12;;;;;;;4.78;2.90;;;;;;;9.46;64.03;94087.91;5063861;28;20044;-45
2022/04/07 00:42:44;;;;;;;8.38;2.90;;;;;;;9.44;63.89;94079.59;5064954;28;20055;-45
2022/04/07 00:45:11;;;;;;;5.40;3.13;;;;;;;9.44;63.67;94074.38;5066084;28;20102;-46
2022/04/07 00:47:38;;;;;;;5.03;3.00;;;;;;;9.44;64.12;94062.16;5067663;28;20045;-45
2022/04/07 00:50:05;;;;;;;7.72;3.33;;;;;;;9.45;64.14;94062.94;5066697;28;20037;-46
2022/04/07 00:52:33;;;;;;;5.43;3.75;;;;;;;9.37;64.10;94059.75;5066993;28;20044;-45
2022/04/07 00:55:01;;;;;;;7.32;3.70;;;;;;;9.40;64.95;94062.88;5066493;28;20049;-48
2022/04/07 00:57:28;;;;;;;4.30;3.22;;;;;;;9.37;65.00;94058.97;5067250;28;20048;-44
2022/04/07 00:59:55;;;;;;;4.97;3.00;;;;;;;9.29;65.22;94065.38;5067729;28;20456;-45
2022/04/07 01:02:22;;;;;;;7.40;3.20;;;;;;;9.25;66.13;94074.66;5068741;28;20078;-45
2022/04/07 01:04:49;;;;;;;6.03;3.67;;;;;;;9.22;65.88;94067.34;5068392;28;20044;-48
2022/04/07 01:07:16;;;;;;;4.20;3.08;;;;;;;9.22;65.74;94072.56;5066258;28;20048;-45
2022/04/07 01:09:43;;;;;;;5.18;3.35;;;;;;;9.16;66.26;94068.31;5067012;28;20509;-46
2022/04/07 01:12:10;;;;;;;4.00;2.92;;;;;;;9.12;66.31;94052.41;5068524;28;20036;-44
2022/04/07 01:14:55;;;;;;;7.93;3.50;;;;;;;9.09;66.93;94041.72;5068745;28;20391;-45
2022/04/07 01:17:22;;;;;;;5.57;3.78;;;;;;;9.01;67.08;94044.75;5067240;28;20114;-45
2022/04/07 01:19:49;;;;;;;5.65;3.35;;;;;;;8.89;67.65;94027.44;5068749;28;20107;-46
2022/04/07 01:22:16;;;;;;;6.32;3.78;;;;;;;8.90;67.22;94028.25;5066919;28;20037;-45
2022/04/07 01:24:43;;;;;;;8.35;3.47;;;;;;;8.85;67.47;94035.97;5067476;28;20147;-46
2022/04/07 01:27:12;;;;;;;5.72;3.42;;;;;;;8.83;67.49;94022.44;5068085;28;20490;-46
2022/04/07 01:29:39;;;;;;;7.50;3.50;;;;;;;8.74;67.54;94003.88;5068318;28;20105;-45
2022/04/07 01:32:22;;;;;;;8.95;4.03;;;;;;;8.66;68.58;94002.47;5066901;28;20051;-45
2022/04/07 01:34:49;;;;;;;9.82;3.45;;;;;;;8.47;68.80;93973.41;5064320;28;20530;-46
2022/04/07 01:37:18;;;;;;;4.15;2.90;;;;;;;8.61;69.22;93987.59;5066155;28;20033;-45
2022/04/07 01:39:47;;;;;;;4.78;3.42;;;;;;;8.60;69.40;93978.25;5068719;28;20098;-45
2022/04/07 01:42:14;;;;;;;5.55;3.17;;;;;;;8.56;69.89;93971.97;5067214;28;20037;-45
2022/04/07 01:44:46;;;;;;;8.10;3.47;;;;;;;8.57;69.34;93963.16;5068289;28;20048;-45
2022/04/07 01:47:16;;;;;;;8.15;3.70;;;;;;;8.50;69.77;93969.53;5066397;28;20037;-45
2022/04/07 01:49:45;;;;;;;9.27;3.88;;;;;;;8.50;70.03;93962.53;5069666;28;20502;-46
2022/04/07 01:52:13;;;;;;;6.03;3.17;;;;;;;8.48;70.00;93959.41;5068704;28;20608;-46
2022/04/07 01:54:44;;;;;;;5.43;3.47;;;;;;;8.47;69.84;93957.81;5067569;28;20102;-45
2022/04/07 01:57:11;;;;;;;7.22;3.33;;;;;;;8.46;69.92;93961.44;5066883;28;20525;-46
2022/04/07 01:59:38;;;;;;;6.70;3.72;;;;;;;8.48;69.28;93943.84;5067754;28;20040;-49
2022/04/07 02:02:05;;;;;;;7.63;3.67;;;;;;;8.53;69.81;93956.09;5066844;28;20802;-47
2022/04/07 02:04:32;;;;;;;5.68;3.17;;;;;;;8.56;69.96;93945.22;5067546;28;20044;-47
2022/04/07 02:06:59;;;;;;;7.03;4.00;;;;;;;8.58;70.06;93953.56;5065127;28;20044;-45
2022/04/07 02:09:26;;;;;;;9.88;3.85;;;;;;;8.59;69.93;93945.53;5070105;28;20044;-45
2022/04/07 02:11:52;;;;;;;7.95;4.57;;;;;;;8.59;70.21;93929.19;5065978;28;20402;-46
2022/04/07 02:14:19;;;;;;;5.88;3.90;;;;;;;8.57;70.18;93931.22;5070794;28;20040;-48
2022/04/07 02:16:46;;;;;;;7.38;3.85;;;;;;;8.52;70.31;93929.34;5069425;28;20032;-44
2022/04/07 02:19:13;;;;;;;10.32;3.75;;;;;;;8.44;70.52;93916.78;5065640;28;20044;-45
2022/04/07 02:21:39;;;;;;;8.15;3.80;;;;;;;8.39;70.77;93911.47;5067224;28;20044;-47
2022/04/07 02:24:08;;;;;;;7.18;3.40;;;;;;;8.37;70.58;93900.56;5066983;28;20047;-47
2022/04/07 02:26:35;;;;;;;6.03;3.88;;;;;;;8.30;70.94;93899.94;5065418;28;20533;-45
2022/04/07 02:29:02;;;;;;;8.93;3.60;;;;;;;8.34;71.02;93916.63;5067957;28;20109;-47
2022/04/07 02:31:28;;;;;;;5.50;4.05;;;;;;;8.30;71.34;93920.69;5065762;28;20060;-48
2022/04/07 02:33:55;;;;;;;6.00;3.80;;;;;;;8.22;71.81;93904.53;5065556;28;20041;-46
2022/04/07 02:36:22;;;;;;;7.57;4.82;;;;;;;8.21;72.27;93897.78;5068387;28;20040;-44
2022/04/07 02:38:48;;;;;;;5.85;4.28;;;;;;;8.24;72.38;93892.09;5066978;28;20052;-44
2022/04/07 02:41:15;;;;;;;9.75;4.03;;;;;;;8.21;72.23;93877.03;5066562;28;20044;-50
2022/04/07 02:43:43;;;;;;;6.35;3.78;;;;;;;8.12;72.51;93888.84;5066701;28;20051;-46
2022/04/07 02:46:10;;;;;;;6.07;3.92;;;;;;;8.10;73.09;93890.84;5065114;28;20055;-44
2022/04/07 02:48:38;;;;;;;7.47;3.50;;;;;;;8.10;72.98;93905.63;5065250;28;20040;-46
2022/04/07 02:51:04;;;;;;;5.50;3.85;;;;;;;8.13;72.55;93913.72;5068857;28;20087;-44
2022/04/07 02:53:31;;;;;;;7.15;4.80;;;;;;;8.11;72.65;93923.56;5065892;28;20055;-45
2022/04/07 02:55:58;;;;;;;5.57;3.95;;;;;;;8.10;72.52;93909.00;5065549;28;20131;-45
2022/04/07 02:58:25;;;;;;;9.15;4.00;;;;;;;8.02;73.59;93883.50;5065653;28;20052;-47
2022/04/07 03:00:52;;;;;;;7.20;4.35;;;;;;;8.05;74.08;93877.84;5063294;28;20052;-46
2022/04/07 03:03:18;;;;;;;7.90;4.20;;;;;;;8.11;73.70;93876.88;5065412;28;22183;-44
2022/04/07 03:05:46;;;;;;;5.65;4.32;;;;;;;8.10;74.07;93877.88;5066001;28;22066;-45
2022/04/07 03:08:14;;;;;;;8.57;4.00;;;;;;;8.06;74.20;93858.66;5063294;28;20055;-50
2022/04/07 03:10:40;;;;;;;9.48;4.07;;;;;;;8.13;74.45;93869.63;5065891;28;20105;-47
2022/04/07 03:13:07;;;;;;;6.25;3.63;;;;;;;8.17;74.33;93865.53;5065675;28;20615;-46
2022/04/07 03:15:34;;;;;;;10.25;4.07;;;;;;;8.26;73.95;93865.13;5064342;28;20106;-45
2022/04/07 03:18:01;;;;;;;6.93;4.35;;;;;;;8.30;74.12;93855.84;5064799;28;20047;-46
2022/04/07 03:20:28;;;;;;;7.50;4.15;;;;;;;8.39;73.53;93849.22;5066431;28;20524;-49
2022/04/07 03:22:54;;;;;;;6.13;3.63;;;;;;;8.38;74.11;93830.28;5066557;28;20044;-45
2022/04/07 03:25:21;;;;;;;8.05;4.30;;;;;;;8.42;73.84;93817.63;5065962;28;20094;-46
2022/04/07 03:27:48;;;;;;;10.10;3.20;;;;;;;8.39;73.62;93815.47;5066873;28;20072;-45
2022/04/07 03:30:14;;;;;;;7.65;4.40;;;;;;;8.42;73.88;93820.22;5066859;28;20037;-44
2022/04/07 03:32:41;;;;;;;6.00;4.32;;;;;;;8.36;74.74;93821.19;5066057;28;20048;-45
2022/04/07 03:35:08;;;;;;;6.68;4.57;;;;;;;8.34;75.03;93843.97;5064598;28;20452;-47
2022/04/07 03:37:35;;;;;;;10.13;4.95;;;;;;;8.28;74.43;93835.31;5064757;28;20110;-47
2022/04/07 03:40:02;;;;;;;8.27;4.13;;;;;;;8.38;74.32;93850.25;5065735;28;20048;-48
2022/04/07 03:42:29;;;;;;;6.03;3.88;;;;;;;8.34;74.27;93844.75;5065256;28;20045;-44
2022/04/07 03:44:55;;;;;;;6.10;3.97;;;;;;;8.35;74.21;93835.16;5067711;28;20040;-45
2022/04/07 03:47:22;;;;;;;7.30;4.00;;;;;;;8.32;74.76;93830.44;5065135;28;20036;-44
2022/04/07 03:49:49;;;;;;;8.40;4.20;;;;;;;8.32;74.22;93830.44;5060661;28;20083;-46
2022/04/07 03:52:16;;;;;;;8.27;3.67;;;;;;;8.26;74.89;93805.47;5061367;28;20041;-50
2022/04/07 03:54:43;;;;;;;6.70;4.22;;;;;;;8.26;75.19;93795.88;5064323;28;20052;-49
2022/04/07 03:57:10;;;;;;;7.35;4.57;;;;;;;8.26;75.02;93789.91;5067525;28;20037;-48
2022/04/07 03:59:38;;;;;;;9.50;4.55;;;;;;;8.14;75.12;93777.84;5066909;28;20095;-48
2022/04/07 04:02:06;;;;;;;8.38;4.10;;;;;;;8.18;75.50;93776.34;5066758;28;20048;-46
2022/04/07 04:04:34;;;;;;;12.38;4.45;;;;;;;8.16;75.84;93770.63;5064199;28;20078;-47
2022/04/07 04:07:00;;;;;;;6.82;3.63;;;;;;;8.14;75.83;93767.47;5061700;28;20037;-46
2022/04/07 04:09:27;;;;;;;6.15;3.75;;;;;;;8.15;75.73;93763.84;5063493;28;20053;-49
2022/04/07 04:11:54;;;;;;;7.00;4.43;;;;;;;8.14;75.44;93762.28;5065719;28;20048;-46
2022/04/07 04:14:21;;;;;;;9.32;4.55;;;;;;;8.18;75.17;93762.59;5065228;28;20095;-49
2022/04/07 04:16:47;;;;;;;10.65;4.90;;;;;;;8.13;75.44;93752.94;5064714;28;20521;-47
2022/04/07 04:19:14;;;;;;;8.35;4.43;;;;;;;8.11;75.69;93762.75;5065516;28;20087;-47
2022/04/07 04:21:41;;;;;;;9.60;4.35;;;;;;;8.08;75.62;93760.66;5068980;28;20059;-50
2022/04/07 04:24:10;;;;;;;8.23;4.68;;;;;;;8.14;75.20;93767.47;5068578;28;20155;-49
2022/04/07 04:26:37;;;;;;;7.72;4.40;;;;;;;8.17;74.81;93772.16;5069064;28;20036;-47
2022/04/07 04:29:04;;;;;;;10.07;4.95;;;;;;;8.15;74.30;93763.06;5067210;28;20077;-50
2022/04/07 04:31:31;;;;;;;8.52;4.90;;;;;;;8.23;73.48;93780.81;5068361;28;20098;-46
2022/04/07 04:33:57;;;;;;;11.32;4.80;;;;;;;8.24;73.36;93783.16;5066871;28;20464;-49
2022/04/07 04:36:24;;;;;;;11.00;4.70;;;;;;;8.27;73.09;93786.31;5066643;28;20052;-50
2022/04/07 04:38:51;;;;;;;11.18;6.13;;;;;;;8.29;73.11;93785.03;5071560;28;20097;-49
2022/04/07 04:41:18;;;;;;;10.27;5.18;;;;;;;8.31;73.65;93782.97;5067433;28;20067;-47
2022/04/07 04:43:44;;;;;;;10.88;5.13;;;;;;;8.31;73.67;93790.75;5067445;28;20113;-47
2022/04/07 04:46:12;;;;;;;11.48;6.78;;;;;;;8.37;72.86;93807.16;5065519;28;20073;-49
2022/04/07 04:48:39;;;;;;;12.07;6.45;;;;;;;8.47;72.01;93811.72;5071061;28;20063;-49
2022/04/07 04:51:06;;;;;;;13.07;7.18;;;;;;;8.51;71.25;93803.19;5066853;28;20056;-50
2022/04/07 04:53:33;;;;;;;6.95;4.95;;;;;;;8.56;70.18;93795.47;5065599;28;20063;-50
2022/04/07 04:55:59;;;;;;;7.47;4.50;;;;;;;8.58;70.28;93795.25;5065990;28;20055;-51
2022/04/07 04:58:26;;;;;;;7.78;4.18;;;;;;;8.68;69.91;93794.56;5067125;28;20040;-49
2022/04/07 05:00:53;;;;;;;6.82;4.68;;;;;;;8.73;69.49;93790.22;5067518;28;20036;-46
2022/04/07 05:03:20;;;;;;;7.28;4.18;;;;;;;8.78;68.98;93772.06;5066177;28;20744;-49
2022/04/07 05:05:46;;;;;;;6.85;4.07;;;;;;;8.88;68.48;93776.59;5066897;28;20044;-47
2022/04/07 05:08:13;;;;;;;10.52;3.92;;;;;;;8.98;68.77;93766.31;5066287;28;20099;-51
2022/04/07 05:10:40;;;;;;;6.70;4.00;;;;;;;9.10;67.73;93767.97;5065635;28;20044;-46
2022/04/07 05:13:07;;;;;;;6.65;3.97;;;;;;;9.16;66.96;93769.56;5066778;28;20371;-44
2022/04/07 05:15:36;;;;;;;9.57;5.40;;;;;;;9.25;66.86;93785.47;5068589;28;20040;-47
2022/04/07 05:18:02;;;;;;;8.25;5.30;;;;;;;9.34;66.50;93795.16;5066477;28;20036;-52
2022/04/07 05:20:29;;;;;;;12.23;4.75;;;;;;;9.38;65.66;93791.06;5067589;28;20106;-47
2022/04/07 05:22:56;;;;;;;12.40;6.38;;;;;;;9.51;65.61;93783.88;5069014;28;20037;-48
2022/04/07 05:25:23;;;;;;;12.88;6.90;;;;;;;9.59;65.58;93770.38;5067573;28;20040;-45
2022/04/07 05:27:50;;;;;;;7.78;4.78;;;;;;;9.64;64.93;93780.81;5067153;28;20090;-46
2022/04/07 05:30:16;;;;;;;8.95;5.93;;;;;;;9.72;65.06;93774.38;5065270;28;20566;-47
2022/04/07 05:32:44;;;;;;;7.18;5.28;;;;;;;9.79;65.59;93763.75;5065719;28;20639;-48
2022/04/07 05:35:12;;;;;;;6.05;3.90;;;;;;;9.81;65.35;93751.28;5066139;28;21432;-48
2022/04/07 05:37:39;;;;;;;11.85;4.45;;;;;;;9.89;65.39;93756.00;5066713;28;20029;-45
2022/04/07 05:40:10;;;;;;;8.13;4.85;;;;;;;9.97;64.91;93755.53;5066279;28;20517;-50
2022/04/07 05:42:37;;;;;;;10.73;6.45;;;;;;;10.06;64.33;93761.03;5066324;28;20110;-47
2022/04/07 05:45:05;;;;;;;10.32;5.28;;;;;;;10.10;61.08;93780.28;5066959;28;20098;-49
2022/04/07 05:47:39;;;;;;;10.68;4.90;;;;;;;10.14;60.45;93792.56;5066934;28;20053;-46
2022/04/07 05:50:06;;;;;;;13.25;7.40;;;;;;;10.19;60.20;93798.81;5066955;28;20460;-46
2022/04/07 05:52:33;;;;;;;15.98;6.43;;;;;;;10.30;59.11;93779.63;5065510;28;20059;-49
2022/04/07 05:55:00;;;;;;;8.13;5.80;;;;;;;10.39;59.00;93762.50;5067068;28;20052;-47
2022/04/07 05:57:27;;;;;;;9.55;5.75;;;;;;;10.37;58.10;93746.38;5067867;28;20037;-48
2022/04/07 05:59:54;;;;;;;13.35;7.32;;;;;;;10.46;57.97;93742.22;5066651;28;20620;-45
2022/04/07 06:02:21;;;;;;;14.68;9.55;;;;;;;10.56;60.75;93740.69;5066957;28;20048;-46
2022/04/07 06:04:47;;;;;;;9.07;6.18;;;;;;;10.60;62.05;93741.72;5068110;28;20102;-45
2022/04/07 06:07:14;;;;;;;11.30;6.45;;;;;;;10.64;61.53;93742.75;5065441;28;20043;-46
2022/04/07 06:09:41;;;;;;;9.43;4.65;;;;;;;10.68;61.36;93743.84;5066573;28;20044;-47
2022/04/07 06:12:09;;;;;;;8.55;4.85;;;;;;;10.61;61.58;93732.88;5066515;28;20521;-50
2022/04/07 06:14:35;;;;;;;10.80;5.65;;;;;;;10.70;62.83;93726.13;5065940;28;20072;-46
2022/04/07 06:17:03;;;;;;;8.73;5.72;;;;;;;10.70;65.38;93710.50;5065623;28;20118;-49
2022/04/07 06:19:30;;;;;;;10.68;5.72;;;;;;;10.74;63.61;93710.78;5066590;28;20043;-47
2022/04/07 06:21:57;;;;;;;11.48;6.47;;;;;;;10.74;63.29;93695.91;5066346;28;20071;-49
2022/04/07 06:24:24;;;;;;;12.52;6.13;;;;;;;10.78;63.00;93702.16;5065725;28;20473;-48
2022/04/07 06:26:50;;;;;;;13.07;6.55;;;;;;;10.80;62.58;93700.06;5065746;28;20545;-50
2022/04/07 06:29:17;;;;;;;9.77;5.72;;;;;;;10.85;61.68;93702.69;5065849;28;20048;-45
2022/04/07 06:31:44;;;;;;;12.65;6.57;;;;;;;10.88;62.07;93685.78;5065755;28;20052;-46
2022/04/07 06:34:23;;;;;;;10.00;6.07;;;;;;;11.03;61.15;93703.22;5064753;28;20083;-48
2022/04/07 06:36:49;;;;;;;16.40;10.05;;;;;;;11.10;59.76;93704.53;5065622;28;20049;-50
2022/04/07 06:39:16;;;;;;;22.65;9.40;;;;;;;11.12;58.86;93706.88;5065554;28;20052;-47
2022/04/07 06:41:43;;;;;;;17.25;9.77;;;;;;;11.13;58.00;93710.25;5064410;28;20048;-48
2022/04/07 06:44:10;;;;;;;8.65;5.70;;;;;;;11.22;57.32;93717.31;5065420;28;20141;-47
2022/04/07 06:46:37;;;;;;;10.98;6.80;;;;;;;11.22;57.18;93699.06;5066684;28;20455;-50
2022/04/07 06:49:04;;;;;;;9.35;6.30;;;;;;;11.06;57.09;93697.50;5065003;28;20045;-47
2022/04/07 06:51:31;;;;;;;9.13;6.32;;;;;;;11.12;56.85;93706.88;5065063;28;20769;-46
2022/04/07 06:53:58;;;;;;;13.13;7.97;;;;;;;11.20;57.20;93698.53;5063954;28;20109;-48
2022/04/07 06:56:24;;;;;;;10.15;6.88;;;;;;;11.24;56.62;93696.97;5064912;28;20536;-52
2022/04/07 06:58:54;;;;;;;10.20;5.28;;;;;;;11.41;56.32;93698.50;5065559;28;20044;-47
2022/04/07 07:01:21;;;;;;;8.77;4.53;;;;;;;11.52;55.55;93700.03;5065686;28;20070;-47
2022/04/07 07:03:48;;;;;;;15.05;7.07;;;;;;;11.63;55.16;93701.59;5064605;28;20081;-47
2022/04/07 07:06:15;;;;;;;13.85;7.93;;;;;;;11.79;55.37;93709.38;5063466;28;20040;-48
2022/04/07 07:08:42;;;;;;;9.23;5.35;;;;;;;11.95;54.30;93710.91;5063249;28;20032;-50
2022/04/07 07:11:09;;;;;;;10.93;7.40;;;;;;;12.04;54.36;93724.19;5065328;28;20163;-51
2022/04/07 07:13:37;;;;;;;17.40;7.00;;;;;;;12.06;53.61;93714.28;5064904;28;20490;-46
2022/04/07 07:16:04;;;;;;;9.90;7.05;;;;;;;11.99;53.69;93714.56;5063625;28;20467;-52
2022/04/07 07:18:32;;;;;;;8.40;6.13;;;;;;;12.07;53.14;93707.25;5063976;28;20067;-50
2022/04/07 07:20:59;;;;;;;13.02;7.35;;;;;;;12.10;52.54;93693.63;5064546;28;20048;-47
2022/04/07 07:23:25;;;;;;;12.57;7.72;;;;;;;12.30;53.00;93709.22;5063803;28;20045;-46
2022/04/07 07:25:52;;;;;;;26.50;10.68;;;;;;;12.41;53.24;93704.75;5063893;28;20064;-48
2022/04/07 07:28:20;;;;;;;9.13;5.43;;;;;;;12.50;52.03;93703.13;5064421;28;20047;-49
2022/04/07 07:30:46;;;;;;;10.32;7.25;;;;;;;12.71;51.53;93698.56;5064997;28;20077;-48
2022/04/07 07:33:13;;;;;;;11.15;6.18;;;;;;;12.79;50.66;93689.34;5063242;28;20422;-47
2022/04/07 07:35:43;;;;;;;9.35;5.20;;;;;;;12.79;51.59;93690.13;5064923;28;20059;-51
2022/04/07 07:38:10;;;;;;;9.07;5.60;;;;;;;12.89;50.63;93678.03;5063861;28;20395;-50
2022/04/07 07:40:36;;;;;;;8.68;5.30;;;;;;;12.84;51.05;93672.84;5064625;28;20075;-50
2022/04/07 07:43:03;;;;;;;6.68;3.72;;;;;;;12.86;50.54;93681.22;5065104;28;20502;-50
2022/04/07 07:45:34;;;;;;;7.75;4.95;;;;;;;12.75;51.17;93677.91;5060686;28;20069;-47
2022/04/07 07:48:27;;;;;;;13.32;6.40;;;;;;;12.82;51.18;93678.38;5062102;28;20989;-48
2022/04/07 07:50:57;;;;;;;10.43;5.97;;;;;;;12.87;50.86;93664.47;5062016;28;20037;-45
2022/04/07 07:53:25;;;;;;;9.70;6.05;;;;;;;12.82;50.53;93668.69;5061766;28;20033;-48
2022/04/07 07:55:54;;;;;;;13.63;6.88;;;;;;;12.89;50.62;93663.16;5062897;28;20458;-46
2022/04/07 07:58:25;;;;;;;12.85;7.93;;;;;;;12.98;51.20;93660.72;5061694;28;20043;-52
2022/04/07 08:00:53;;;;;;;14.10;9.70;;;;;;;13.08;50.04;93655.41;5063332;28;20062;-52
2022/04/07 08:03:22;;;;;;;14.38;4.93;;;;;;;13.02;50.24;93646.06;5061074;28;20052;-50
2022/04/07 08:05:49;;;;;;;5.25;3.90;;;;;;;12.92;50.16;93640.91;5062400;28;20057;-52
2022/04/07 08:08:16;;;;;;;11.48;5.15;;;;;;;12.92;51.11;93641.69;5061783;28;20107;-47
2022/04/07 08:10:43;;;;;;;7.63;4.30;;;;;;;12.83;50.70;93638.09;5063919;28;20061;-45
2022/04/07 08:13:10;;;;;;;5.47;4.05;;;;;;;12.81;53.35;93630.53;5059732;28;20062;-48
2022/04/07 08:15:37;;;;;;;6.65;3.72;;;;;;;12.73;55.04;93628.53;5061551;28;20059;-48
2022/04/07 08:18:05;;;;;;;10.25;6.28;;;;;;;12.71;55.75;93620.19;5061439;28;20075;-44
2022/04/07 08:20:32;;;;;;;11.30;5.32;;;;;;;12.61;54.12;93620.25;5062347;28;21857;-45
2022/04/07 08:22:58;;;;;;;12.73;6.80;;;;;;;12.51;53.47;93620.31;5061512;28;20037;-49
2022/04/07 08:25:25;;;;;;;14.20;5.93;;;;;;;12.42;53.60;93613.06;5061184;28;20060;-47
2022/04/07 08:27:52;;;;;;;13.10;6.28;;;;;;;12.37;53.67;93615.72;5061376;28;20456;-46
2022/04/07 08:30:18;;;;;;;9.60;5.13;;;;;;;12.38;54.59;93606.81;5062515;28;20052;-47
2022/04/07 08:32:45;;;;;;;8.15;4.45;;;;;;;12.24;54.22;93590.19;5066156;28;20510;-50
2022/04/07 08:35:12;;;;;;;11.35;4.88;;;;;;;12.18;54.98;93586.84;5064098;28;20057;-50
2022/04/07 08:37:39;;;;;;;7.25;5.20;;;;;;;12.28;54.66;93582.59;5063047;28;20032;-45
2022/04/07 08:40:07;;;;;;;11.48;4.95;;;;;;;12.37;54.31;93579.16;5061574;28;20102;-52
2022/04/07 08:42:36;;;;;;;7.45;5.13;;;;;;;12.52;54.56;93569.66;5063276;28;20375;-46
2022/04/07 08:45:04;;;;;;;44.35;16.15;;;;;;;12.61;54.07;93573.25;5061440;28;20057;-49
2022/04/07 08:47:33;;;;;;;8.82;5.80;;;;;;;12.72;53.26;93574.72;5060433;28;20098;-46
2022/04/07 08:50:03;;;;;;;11.48;5.05;;;;;;;12.81;52.63;93567.84;5061148;28;20147;-47
2022/04/07 08:52:30;;;;;;;7.07;5.65;;;;;;;12.90;52.31;93554.19;5061646;28;20056;-45
2022/04/07 08:54:57;;;;;;;13.70;8.65;;;;;;;12.99;52.60;93557.75;5062306;28;20052;-46
2022/04/07 08:57:26;;;;;;;9.57;6.45;;;;;;;13.16;52.71;93552.88;5061300;28;20425;-50
2022/04/07 08:59:53;;;;;;;6.88;4.38;;;;;;;13.28;51.37;93555.09;5062618;28;20068;-48
2022/04/07 09:02:20;;;;;;;8.38;6.22;;;;;;;13.32;52.45;93545.66;5063705;28;20399;-46
2022/04/07 09:04:47;;;;;;;13.35;5.03;;;;;;;13.45;51.38;93549.44;5063489;28;20703;-45
2022/04/07 09:07:14;;;;;;;6.45;4.68;;;;;;;13.54;50.60;93553.00;5066627;28;20058;-52
2022/04/07 09:09:41;;;;;;;14.52;5.20;;;;;;;13.75;51.20;93552.75;5066869;28;20371;-46
2022/04/07 09:12:10;;;;;;;21.83;11.13;;;;;;;13.85;50.57;93551.84;5064417;28;20118;-46
2022/04/07 09:14:37;;;;;;;9.00;4.30;;;;;;;13.97;48.79;93554.78;5065228;28;20050;-48
2022/04/07 09:17:05;;;;;;;8.57;4.75;;;;;;;14.03;48.38;93542.44;5065668;28;20076;-48
2022/04/07 09:19:34;;;;;;;6.30;3.80;;;;;;;14.26;47.79;93546.81;5065204;28;20044;-46
2022/04/07 09:22:13;;;;;;;11.25;4.57;;;;;;;14.32;46.86;93544.88;5064684;28;20139;-47
2022/04/07 09:24:42;;;;;;;10.95;5.43;;;;;;;14.32;46.55;93555.38;5064597;28;20056;-46
2022/04/07 09:27:10;;;;;;;23.02;11.32;;;;;;;14.40;46.40;93546.06;5065584;28;20129;-52
2022/04/07 09:29:43;;;;;;;22.65;10.20;;;;;;;14.37;45.57;93542.19;5067851;28;20048;-47
2022/04/07 09:32:18;;;;;;;13.48;7.85;;;;;;;14.43;45.67;93558.59;5065393;28;20147;-50
2022/04/07 09:34:45;;;;;;;12.10;7.22;;;;;;;14.18;45.44;93568.38;5065808;28;20041;-47
2022/04/07 09:37:14;;;;;;;11.52;6.40;;;;;;;14.08;45.75;93579.00;5063668;28;20037;-51
2022/04/07 09:39:41;;;;;;;12.10;5.22;;;;;;;13.91;46.87;93582.09;5064780;28;20044;-46
2022/04/07 09:42:19;;;;;;;16.60;5.47;;;;;;;13.85;52.37;93585.88;5066900;28;20048;-51
2022/04/07 09:44:51;;;;;;;9.90;4.78;;;;;;;13.65;53.08;93592.09;5064258;28;20461;-51
2022/04/07 09:47:20;;;;;;;7.30;4.90;;;;;;;13.57;56.18;93589.03;5064604;28;20106;-52
2022/04/07 09:49:48;;;;;;;10.77;5.45;;;;;;;13.48;56.92;93590.72;5063490;28;20079;-46
2022/04/07 09:52:20;;;;;;;14.50;8.93;;;;;;;13.40;60.02;93583.50;5064628;28;20106;-49
2022/04/07 09:54:50;;;;;;;9.70;6.97;;;;;;;13.29;63.19;93576.78;5065886;28;20114;-51
2022/04/07 09:57:21;;;;;;;7.43;5.25;;;;;;;13.21;66.83;93575.56;5065023;28;20044;-50
2022/04/07 09:59:49;;;;;;;17.58;8.63;;;;;;;13.05;67.60;93572.31;5059632;28;20493;-50
2022/04/07 10:02:17;;;;;;;16.25;8.43;;;;;;;12.88;68.34;93571.97;5063475;28;20052;-48
2022/04/07 10:04:46;;;;;;;8.88;5.22;;;;;;;12.69;67.28;93562.19;5046767;28;20135;-49
2022/04/07 10:07:13;;;;;;;7.00;4.57;;;;;;;12.65;66.71;93584.69;5064798;28;20044;-48
2022/04/07 10:09:42;;;;;;;11.15;6.32;;;;;;;12.55;65.66;93584.75;5063713;28;20055;-52
2022/04/07 10:12:10;;;;;;;11.38;7.00;;;;;;;12.47;69.17;93572.31;5061117;28;20048;-51
2022/04/07 10:14:38;;;;;;;11.50;6.82;;;;;;;12.28;66.85;93591.25;5065069;28;20437;-50
2022/04/07 10:17:09;;;;;;;13.75;8.40;;;;;;;11.93;68.68;93611.25;5062078;28;20094;-47
2022/04/07 10:19:58;;;;;;;11.07;5.85;;;;;;;11.68;70.54;93614.72;5030541;28;20040;-53
2022/04/07 10:22:54;;;;;;;11.45;5.72;;;;;;;11.35;70.02;93616.16;5048000;28;20053;-46
2022/04/07 10:25:23;;;;;;;14.15;7.53;;;;;;;11.01;72.78;93608.91;5053159;28;20067;-47
2022/04/07 10:27:53;;;;;;;14.20;5.68;;;;;;;10.63;70.39;93605.81;5063444;28;20123;-50
2022/04/07 10:30:21;;;;;;;12.20;4.72;;;;;;;10.38;76.35;93609.19;5062831;28;20048;-47
2022/04/07 10:32:54;;;;;;;10.00;4.35;;;;;;;10.17;79.32;93610.94;5057559;28;20065;-53
2022/04/07 10:35:32;;;;;;;14.90;5.07;;;;;;;9.84;82.52;93605.16;5062489;28;20121;-52
2022/04/07 10:38:01;;;;;;;10.10;4.55;;;;;;;9.73;82.43;93599.91;5063724;28;20049;-51
2022/04/07 10:40:35;;;;;;;11.93;3.92;;;;;;;9.72;84.01;93592.38;5063087;28;20076;-51
2022/04/07 10:43:06;;;;;;;18.65;7.40;;;;;;;9.67;84.41;93584.53;5062288;28;20053;-48
2022/04/07 10:45:33;;;;;;;17.13;7.75;;;;;;;9.75;85.54;93591.84;5062488;28;20537;-50
2022/04/07 10:48:46;;;;;;;10.02;4.75;;;;;;;9.92;87.24;93586.44;5062520;28;20056;-46
2022/04/07 10:51:13;;;;;;;17.98;6.85;;;;;;;9.81;89.54;93592.66;5058541;28;20052;-50
2022/04/07 10:54:01;;;;;;;12.70;5.47;;;;;;;9.89;91.92;93586.97;5061394;28;20367;-50
2022/04/07 10:56:33;;;;;;;19.73;6.25;;;;;;;9.88;89.85;93585.41;5062721;28;20041;-48
2022/04/07 10:59:18;;;;;;;24.75;6.05;;;;;;;9.87;88.62;93583.84;5062487;28;20060;-46
2022/04/07 11:01:58;;;;;;;16.98;6.50;;;;;;;9.94;91.11;93584.38;5064422;28;20051;-46
2022/04/07 11:04:25;;;;;;;17.52;7.47;;;;;;;9.97;89.70;93578.66;5063955;28;20047;-51
2022/04/07 11:07:13;;;;;;;11.90;6.57;;;;;;;10.18;90.39;93563.09;5063389;28;20099;-46
2022/04/07 11:09:40;;;;;;;22.52;7.78;;;;;;;10.41;92.30;93560.00;5058545;28;20049;-46
2022/04/07 11:12:37;;;;;;;18.98;6.60;;;;;;;10.70;90.28;93564.69;5064179;28;20115;-46
2022/04/07 11:15:05;;;;;;;15.43;7.10;;;;;;;10.85;87.29;93559.44;5055292;28;20066;-45
2022/04/07 11:17:37;;;;;;;16.48;9.05;;;;;;;10.96;85.61;93559.44;5063984;28;20110;-49
2022/04/07 11:20:10;;;;;;;21.45;13.48;;;;;;;11.10;87.36;93557.81;5063277;28;20126;-50
2022/04/07 11:22:56;;;;;;;18.23;9.02;;;;;;;11.15;82.23;93552.59;5061351;28;20033;-49
2022/04/07 11:25:24;;;;;;;21.35;9.55;;;;;;;11.20;81.37;93550.00;5064011;28;20056;-45
2022/04/07 11:28:14;;;;;;;35.58;18.77;;;;;;;11.40;84.53;93550.97;5063688;28;20048;-50
2022/04/07 11:30:42;;;;;;;20.90;9.50;;;;;;;11.50;81.80;93553.53;5064237;28;20064;-48
2022/04/07 11:33:27;;;;;;;16.27;8.63;;;;;;;11.71;81.87;93561.28;5063320;28;20052;-49
2022/04/07 11:36:00;;;;;;;13.90;8.10;;;;;;;11.86;81.07;93569.00;5060378;28;20055;-49
2022/04/07 11:38:29;;;;;;;15.43;8.73;;;;;;;11.90;79.22;93569.25;5058715;28;20037;-50
2022/04/07 11:41:06;;;;;;;15.75;8.23;;;;;;;11.76;76.36;93574.28;5059560;28;20048;-47